Aérodrome :
LOGIN :

S'inscrire | Disclaimer

   EN    FR    IT 

 










Légende :    VFR   VFR Marginal   IFR   IFR Intensif   IFR Très Intensif
Visi : 
Plafond : 
>= 8 km
>= 3000ft
5 à 8 km
1000 à 3000 ft
1500m à 5 km
500 à 1000 ft
800 à 1500m
200 à 500 ft
< 800m
< 200 ft
Symboles :   Orages  Brouillard  Fortes neiges  Fortes précipitations  Vent > 20 kt
SIGMETs :   Divers  Orages  Givrage  Turbulence  Onde Orograph.  Cendres Volcan.






- Altitude de l'aérodrome : 1822 ft


ETSL - Lechfeld AB

DERNIER METAR :
  • 061020Z 22016G26KT 9999 FEW020 BKN045 BKN080 10/M00 Q1010 BLU BLU

METARs EXPIRÉS :
  • 060920Z 21011KT 9999 FEW040 SCT050 BKN080 10/M00 Q1010 BLU BLU
  • 060820Z 22007KT 9999 FEW030 SCT040 BKN080 10/00 Q1010 BLU BLU

TAF TAF ETSL
Valide du 06 à 08h jusqu'au 06 à 17h UTC


060710Z 0608/0617 22008G18KT 9999 NSW SCT020 BKN040
TEMPO 0614/0617 23010G20KT 5000 RA SCT010 BKN020 BY ETGL



MET'MAP, la Météo Aéronautique d'un coup d'oeil ! - Copyright ORBIFLY Décembre 2007 - Disclaimer

ORBIFLY MET'MAP TEAM :

Programmation & Développement : Alexandra Zaïnal
Sur une idée originale de : Baudouin d'Aumeries
Assistance à la programmation : Marc-Olivier Méhu
Soutien technique & logistique : Manuel Goepfert

Contact : metmap@orbifly.com




SOURCES & CREDITS :

   NOAA